Terminal Aerodrome Forecast
Issued by NWS

Home | Current Version | Previous Version | Text Only | Print | Product List | Glossary On
Versions: 1 2 3 4 5 6 7 8 9 10 11 12 13 14
000
FTUS46 KPDT 300533
TAFBDN
TAF
KBDN 300533Z 3006/0106 23005KT P6SM VCSH BKN070 OVC100
     FM300900 20005KT P6SM SCT070 BKN200
     FM301900 21011G17KT P6SM SCT080 BKN180
     FM010300 30007KT P6SM FEW200=

USA.gov is the U.S. government's official web portal to all federal, state and local government web resources and services.